Terminal Aerodrome Forecast
Issued by NWS

Home | Current Version | Previous Version | Graphics & Text | Print | Product List | Glossary On
Versions: 1 2 3 4 5 6 7 8 9 10 11 12 13 14 15 16
000
FTUS41 KCLE 230520
TAFFDY
TAF
KFDY 230520Z 2306/2406 11005KT P6SM SKC
     FM231500 12010KT P6SM BKN250
     FM232200 14010KT P6SM OVC100
     FM240500 18010KT P6SM VCSH OVC050=

USA.gov is the U.S. government's official web portal to all federal, state and local government web resources and services.